createdAt,value
2022-10-26T00:03:24.733Z,10.4
2022-10-26T00:08:26.771Z,10.4
2022-10-26T00:13:28.844Z,10.4
2022-10-26T00:18:30.836Z,10.4
2022-10-26T00:23:32.701Z,10.3
2022-10-26T00:28:34.780Z,10.3
2022-10-26T00:33:36.950Z,10.4
2022-10-26T00:38:38.883Z,10.4
2022-10-26T00:43:40.785Z,10.2
2022-10-26T00:48:43.425Z,10.2
2022-10-26T00:53:45.436Z,10.2
2022-10-26T00:58:47.353Z,10.2
2022-10-26T01:03:49.865Z,10
2022-10-26T01:08:52.213Z,10
2022-10-26T01:13:54.219Z,9.9
2022-10-26T01:18:56.313Z,9.9
2022-10-26T01:23:58.851Z,10.1
2022-10-26T01:29:00.749Z,10.1
2022-10-26T01:39:03.837Z,10
2022-10-26T01:44:05.738Z,10
2022-10-26T01:49:08.036Z,9.9
2022-10-26T01:54:10.439Z,9.8
2022-10-26T01:59:12.399Z,9.8
2022-10-26T02:04:15.044Z,9.8
2022-10-26T02:09:17.331Z,9.8
2022-10-26T02:14:19.404Z,9.7
2022-10-26T02:19:21.395Z,9.6
2022-10-26T02:24:23.360Z,9.6
2022-10-26T02:29:25.391Z,9.6
2022-10-26T02:34:27.554Z,9.6
2022-10-26T02:39:29.498Z,9.5
2022-10-26T02:44:31.446Z,9.4
2022-10-26T02:49:33.824Z,9.5
2022-10-26T02:54:35.674Z,9.4
2022-10-26T02:59:37.571Z,9.5
2022-10-26T03:04:39.596Z,9.5
2022-10-26T03:09:41.799Z,9.4
2022-10-26T03:14:43.733Z,9.4
2022-10-26T03:19:45.874Z,9.4
2022-10-26T03:24:47.799Z,9.4
2022-10-26T03:29:49.677Z,9.4
2022-10-26T03:34:51.507Z,9.3
2022-10-26T03:39:53.877Z,9.3
2022-10-26T03:44:55.792Z,9.3
2022-10-26T03:49:58.233Z,9.2
2022-10-26T03:55:00.400Z,9.1
2022-10-26T04:00:02.389Z,9.1
2022-10-26T04:05:04.790Z,9.1
2022-10-26T04:10:07.001Z,9.1
2022-10-26T04:15:09.424Z,9.2
2022-10-26T04:20:11.440Z,9.1
2022-10-26T04:25:13.351Z,9.2
2022-10-26T04:30:15.315Z,9.2
2022-10-26T04:35:17.293Z,9.1
2022-10-26T04:40:19.271Z,9
2022-10-26T04:45:21.203Z,8.9
2022-10-26T04:50:29.407Z,8.8
2022-10-26T04:55:31.279Z,8.8
2022-10-26T05:00:33.399Z,8.7
2022-10-26T05:05:35.330Z,8.7
2022-10-26T05:10:37.564Z,8.7
2022-10-26T05:15:39.750Z,8.7
2022-10-26T05:20:53.921Z,8.7
2022-10-26T05:25:55.958Z,8.7
2022-10-26T05:30:58.095Z,8.7
2022-10-26T05:36:00.111Z,8.7
2022-10-26T05:41:02.007Z,8.8
2022-10-26T05:46:03.984Z,8.7
2022-10-26T05:51:05.941Z,9
2022-10-26T05:56:11.908Z,9.7
2022-10-26T06:01:14.877Z,10.2
2022-10-26T06:06:17.018Z,10.2
2022-10-26T06:11:19.460Z,11.2
2022-10-26T06:16:21.350Z,12.2
2022-10-26T06:21:23.348Z,13.4
2022-10-26T06:26:25.450Z,14.7
2022-10-26T06:31:27.521Z,16.4
2022-10-26T06:36:29.742Z,17.3
2022-10-26T06:41:31.576Z,18.6
2022-10-26T06:46:33.506Z,19.4
2022-10-26T06:51:35.450Z,21.3
2022-10-26T06:56:37.460Z,21.9
2022-10-26T07:01:40.261Z,19.6
2022-10-26T07:06:42.988Z,21.7
2022-10-26T07:11:45.064Z,21.7
2022-10-26T07:16:47.047Z,22.3
2022-10-26T07:21:49.210Z,22.9
2022-10-26T07:26:51.362Z,23.8
2022-10-26T07:31:54.999Z,25.3
2022-10-26T07:36:56.971Z,25.2
2022-10-26T07:41:58.853Z,25.6
2022-10-26T07:47:00.747Z,25.5
2022-10-26T07:52:02.772Z,26.5
2022-10-26T08:02:07.389Z,24.7
2022-10-26T08:07:09.982Z,26
2022-10-26T08:12:12.216Z,26
2022-10-26T08:17:14.078Z,26.4
2022-10-26T08:22:15.879Z,26.7
2022-10-26T08:27:17.855Z,25.5
2022-10-26T08:32:20.019Z,28.1
2022-10-26T08:37:22.145Z,29.3
2022-10-26T08:42:24.043Z,29.6
2022-10-26T08:47:26.008Z,29.8
2022-10-26T08:52:27.989Z,31
2022-10-26T08:57:29.907Z,31.2
2022-10-26T09:02:31.769Z,28.5
2022-10-26T09:07:33.674Z,29.4
2022-10-26T09:12:35.710Z,28.5
2022-10-26T09:17:37.623Z,28.8
2022-10-26T09:22:39.678Z,30
2022-10-26T09:27:41.856Z,29.7
2022-10-26T09:32:43.765Z,31.4
2022-10-26T09:37:45.764Z,31.1
2022-10-26T09:42:47.823Z,32.5
2022-10-26T09:47:50.937Z,31.5
2022-10-26T09:52:54.314Z,30.6
2022-10-26T09:57:56.253Z,30.6
2022-10-26T10:02:58.356Z,29.2
2022-10-26T10:08:00.402Z,31.2
2022-10-26T10:13:02.580Z,30.1
2022-10-26T10:18:05.287Z,32.1
2022-10-26T10:23:07.187Z,32.1
2022-10-26T10:28:09.152Z,32
2022-10-26T10:33:11.466Z,30.7
2022-10-26T10:38:13.461Z,30.1
2022-10-26T10:43:15.501Z,31.2
2022-10-26T10:48:17.411Z,32.4
2022-10-26T10:53:19.350Z,32.1
2022-10-26T10:58:21.391Z,31.5
2022-10-26T11:03:27.722Z,32.3
2022-10-26T11:08:29.699Z,32.1
2022-10-26T11:13:31.773Z,30.1
2022-10-26T11:18:33.714Z,30.1
2022-10-26T11:23:35.660Z,29.7
2022-10-26T11:28:38.245Z,30.7
2022-10-26T11:33:40.237Z,30.6
2022-10-26T11:38:58.726Z,25.7
2022-10-26T11:43:47.678Z,25.7
2022-10-26T11:48:49.603Z,27.6
2022-10-26T11:53:51.493Z,27.8
2022-10-26T11:58:53.567Z,27.1
2022-10-26T12:03:55.665Z,27.3
2022-10-26T12:08:57.542Z,28.9
2022-10-26T12:13:59.549Z,27.3
2022-10-26T12:19:01.435Z,26.9
2022-10-26T12:24:03.534Z,26.6
2022-10-26T12:29:05.590Z,25.7
2022-10-26T12:34:07.499Z,24.5
2022-10-26T12:39:09.565Z,23.9
2022-10-26T12:44:12.276Z,24
2022-10-26T12:49:14.509Z,23.9
2022-10-26T12:54:17.283Z,23
2022-10-26T13:04:19.979Z,22.3
2022-10-26T13:09:22.879Z,22.1
2022-10-26T13:14:25.043Z,22.1
2022-10-26T13:19:26.970Z,22.1
2022-10-26T13:24:29.492Z,22
2022-10-26T13:29:31.426Z,22
2022-10-26T13:34:33.403Z,21.8
2022-10-26T13:39:35.581Z,21.6
2022-10-26T13:44:37.526Z,21.2
2022-10-26T13:49:39.547Z,21.2
2022-10-26T13:54:41.519Z,21.2
2022-10-26T13:59:43.612Z,21.2
2022-10-26T14:04:45.568Z,21
2022-10-26T14:09:48.368Z,20.7
2022-10-26T14:14:50.432Z,20.6
2022-10-26T14:19:52.409Z,20.4
2022-10-26T14:24:58.157Z,20.2
2022-10-26T14:30:30.345Z,20.1
2022-10-26T14:35:02.388Z,20.1
2022-10-26T14:40:04.359Z,20.1
2022-10-26T14:45:09.398Z,19.8
2022-10-26T14:50:13.793Z,19.6
2022-10-26T14:55:15.756Z,19.6
2022-10-26T15:00:19.742Z,19.4
2022-10-26T15:05:21.887Z,19.4
2022-10-26T15:10:24.318Z,19.2
2022-10-26T15:15:26.458Z,19.1
2022-10-26T15:20:28.414Z,19.1
2022-10-26T15:25:30.400Z,19
2022-10-26T15:30:32.500Z,18.9
2022-10-26T15:35:34.419Z,18.8
2022-10-26T15:40:36.286Z,18.6
2022-10-26T15:45:38.699Z,18.6
2022-10-26T15:50:43.291Z,18.5
2022-10-26T15:55:45.264Z,18.5
2022-10-26T16:00:47.728Z,18.5
2022-10-26T16:05:49.748Z,18.4
2022-10-26T16:10:52.202Z,18.4
2022-10-26T16:15:54.453Z,18.4
2022-10-26T16:20:56.372Z,18.3
2022-10-26T16:26:00.906Z,18.2
2022-10-26T16:31:02.909Z,18.2
2022-10-26T16:36:04.987Z,18.2
2022-10-26T16:41:07.186Z,18.1
2022-10-26T16:46:09.068Z,18.1
2022-10-26T16:51:11.051Z,18
2022-10-26T16:56:13.153Z,17.9
2022-10-26T17:01:15.804Z,17.9
2022-10-26T17:06:17.929Z,17.9
2022-10-26T17:11:19.973Z,17.9
2022-10-26T17:16:22.245Z,17.8
2022-10-26T17:21:24.318Z,17.8
2022-10-26T17:26:26.204Z,17.7
2022-10-26T17:31:28.173Z,17.7
2022-10-26T17:36:30.158Z,17.6
2022-10-26T17:41:32.588Z,17.5
2022-10-26T17:46:34.565Z,17.5
2022-10-26T17:51:36.435Z,17.4
2022-10-26T17:56:38.431Z,17.4
2022-10-26T18:01:40.959Z,17.3
2022-10-26T18:06:43.087Z,17.3
2022-10-26T18:11:48.633Z,17.3
2022-10-26T18:16:48.041Z,17.2
2022-10-26T18:21:50.372Z,17.2
2022-10-26T18:26:52.818Z,17.2
2022-10-26T18:31:55.826Z,17.1
2022-10-26T18:36:57.862Z,17.1
2022-10-26T18:42:00.491Z,17.1
2022-10-26T18:47:02.500Z,17
2022-10-26T18:52:04.398Z,17
2022-10-26T18:57:06.843Z,17
2022-10-26T19:02:08.887Z,16.9
2022-10-26T19:07:10.982Z,16.8
2022-10-26T19:12:12.853Z,16.8
2022-10-26T19:17:15.057Z,16.8
2022-10-26T19:22:17.058Z,16.7
2022-10-26T19:27:19.560Z,16.6
2022-10-26T19:32:23.871Z,16.5
2022-10-26T19:37:29.997Z,16.5
2022-10-26T19:42:32.499Z,16.5
2022-10-26T19:47:34.552Z,16.5
2022-10-26T19:52:36.866Z,16.5
2022-10-26T19:57:38.825Z,16.4
2022-10-26T20:02:40.806Z,16.4
2022-10-26T20:07:43.267Z,16.4
2022-10-26T20:12:45.420Z,16.4
2022-10-26T20:17:47.439Z,16.4
2022-10-26T20:22:50.536Z,16.3
2022-10-26T20:27:54.411Z,16.2
2022-10-26T20:32:56.402Z,16.2
2022-10-26T20:37:58.281Z,16.2
2022-10-26T20:43:00.447Z,16.2
2022-10-26T20:48:02.378Z,16.1
2022-10-26T20:53:04.321Z,15.9
2022-10-26T20:58:06.692Z,15.7
2022-10-26T21:03:08.618Z,15.6
2022-10-26T21:08:10.610Z,15.6
2022-10-26T21:13:12.718Z,15.5
2022-10-26T21:18:14.722Z,15.5
2022-10-26T21:23:16.561Z,15.4
2022-10-26T21:28:18.667Z,15.5
2022-10-26T21:33:25.959Z,15.3
2022-10-26T21:38:27.909Z,15.3
2022-10-26T21:43:29.838Z,15.2
2022-10-26T21:48:31.705Z,15.1
2022-10-26T21:53:33.610Z,15
2022-10-26T21:58:35.505Z,14.9
2022-10-26T22:03:37.412Z,14.8
2022-10-26T22:08:39.466Z,14.6
2022-10-26T22:18:42.303Z,14.3
2022-10-26T22:23:44.170Z,14.3
2022-10-26T22:28:46.203Z,14.1
2022-10-26T22:33:48.192Z,14.1
2022-10-26T22:38:50.098Z,14
2022-10-26T22:43:52.504Z,13.2
2022-10-26T22:48:54.582Z,13.2
2022-10-26T22:53:56.680Z,12.9
2022-10-26T22:58:59.339Z,12.7
2022-10-26T23:04:01.292Z,12.6
2022-10-26T23:09:03.159Z,12.7
2022-10-26T23:14:05.006Z,12.8
2022-10-26T23:19:06.967Z,12.8
2022-10-26T23:24:08.863Z,13
2022-10-26T23:29:11.432Z,13.2
2022-10-26T23:34:13.530Z,13.2
2022-10-26T23:39:15.475Z,13.3
2022-10-26T23:44:17.613Z,13.3
2022-10-26T23:49:19.794Z,13.3
2022-10-26T23:54:21.668Z,13.3
2022-10-26T23:59:23.508Z,13.3
